Time;durP1;ratioP1;P1;durP2;ratioP2;P2;SDS_P1;SDS_P2;PMS_P1;PMS_P2;Temp;Humidity;BMP_temperature;BMP_pressure;BME280_temperature;BME280_humidity;BME280_pressure;Samples;Min_cycle;Max_cycle;Signal;HPM_P1;HPM_P2
2023/03/02 00:01:42;;;;;;;8.20;4.70;;;4.20;79.60;;;;;;4978772;28;20509;-81
2023/03/02 00:04:13;;;;;;;9.40;4.75;;;4.10;79.70;;;;;;4977324;28;20096;-79
2023/03/02 00:06:39;;;;;;;9.60;4.75;;;4.10;80.10;;;;;;4979712;28;20029;-80
2023/03/02 00:09:05;;;;;;;8.35;4.57;;;4.10;80.20;;;;;;4993799;28;20186;-80
2023/03/02 00:11:32;;;;;;;9.27;4.25;;;4.10;79.80;;;;;;4975106;28;20022;-81
2023/03/02 00:13:58;;;;;;;7.72;4.45;;;4.10;79.70;;;;;;4993535;28;20404;-81
2023/03/02 00:16:23;;;;;;;10.10;4.45;;;4.10;79.70;;;;;;4983516;28;20549;-81
2023/03/02 00:18:49;;;;;;;7.95;3.92;;;4.10;79.60;;;;;;4979441;28;20025;-81
2023/03/02 00:21:15;;;;;;;8.30;4.85;;;4.10;79.70;;;;;;4981050;28;20026;-80
2023/03/02 00:23:41;;;;;;;10.68;4.82;;;4.10;79.90;;;;;;4976058;28;20397;-80
2023/03/02 00:26:06;;;;;;;9.73;4.47;;;4.10;80.00;;;;;;4979170;28;20101;-81
2023/03/02 00:28:33;;;;;;;9.50;4.35;;;4.10;80.10;;;;;;4998511;28;20030;-80
2023/03/02 00:30:59;;;;;;;9.93;4.38;;;4.00;80.10;;;;;;4980995;28;20062;-81
2023/03/02 00:33:25;;;;;;;7.68;4.45;;;4.00;80.30;;;;;;4999472;28;20050;-81
2023/03/02 00:35:50;;;;;;;10.50;4.55;;;4.00;80.60;;;;;;4985894;28;20010;-81
2023/03/02 00:38:16;;;;;;;9.07;4.43;;;3.90;80.70;;;;;;4995959;28;20640;-79
2023/03/02 00:40:51;;;;;;;7.10;4.18;;;3.80;80.60;;;;;;4979052;28;20034;-79
2023/03/02 00:43:16;;;;;;;10.90;4.20;;;3.80;80.90;;;;;;4994233;28;20077;-79
2023/03/02 00:45:42;;;;;;;8.73;4.25;;;3.80;80.80;;;;;;4974148;28;20076;-80
2023/03/02 00:48:08;;;;;;;7.65;4.43;;;3.80;81.10;;;;;;4995954;28;20520;-79
2023/03/02 00:50:40;;;;;;;7.75;4.38;;;3.80;81.00;;;;;;4978905;28;20022;-79
2023/03/02 00:53:07;;;;;;;9.38;3.92;;;3.80;80.70;;;;;;4980205;28;20065;-80
2023/03/02 00:55:33;;;;;;;9.02;4.30;;;3.80;80.70;;;;;;4998376;28;20019;-79
2023/03/02 00:57:59;;;;;;;9.57;4.18;;;3.80;80.70;;;;;;4995265;28;20128;-80
2023/03/02 01:00:27;;;;;;;10.68;4.53;;;3.80;81.20;;;;;;4996300;28;20037;-80
2023/03/02 01:02:53;;;;;;;9.35;5.00;;;3.80;81.40;;;;;;4997336;28;20157;-81
2023/03/02 01:05:19;;;;;;;9.50;4.75;;;3.70;81.50;;;;;;4996836;28;20143;-81
2023/03/02 01:07:47;;;;;;;9.60;4.38;;;3.70;81.60;;;;;;4993142;28;20061;-80
2023/03/02 01:10:16;;;;;;;12.23;4.57;;;3.70;82.10;;;;;;4994717;28;20028;-80
2023/03/02 01:12:41;;;;;;;10.40;4.85;;;3.70;81.90;;;;;;4994685;28;20026;-81
2023/03/02 01:15:09;;;;;;;6.30;3.75;;;3.60;82.40;;;;;;4992006;28;20038;-78
2023/03/02 01:17:34;;;;;;;8.98;4.38;;;3.50;83.40;;;;;;4996024;28;20344;-78
2023/03/02 01:20:00;;;;;;;9.27;4.95;;;3.50;82.80;;;;;;4996135;28;20466;-78
2023/03/02 01:22:28;;;;;;;13.73;4.75;;;3.40;83.50;;;;;;4994722;28;20185;-79
2023/03/02 01:24:54;;;;;;;6.85;4.20;;;3.40;84.00;;;;;;4993162;28;20116;-78
2023/03/02 01:27:19;;;;;;;8.10;4.10;;;3.40;84.40;;;;;;4992715;28;20111;-79
2023/03/02 01:29:45;;;;;;;12.40;4.68;;;3.30;84.60;;;;;;4975324;28;20418;-80
2023/03/02 01:32:10;;;;;;;8.23;4.78;;;3.30;84.80;;;;;;4997622;28;20018;-79
2023/03/02 01:34:36;;;;;;;10.77;4.20;;;3.20;85.00;;;;;;4994962;28;20022;-80
2023/03/02 01:37:02;;;;;;;9.80;4.22;;;3.20;85.30;;;;;;4976947;28;20026;-79
2023/03/02 01:39:28;;;;;;;9.75;4.97;;;3.20;85.40;;;;;;4995209;28;20026;-79
2023/03/02 01:41:56;;;;;;;8.50;4.20;;;3.20;85.30;;;;;;4991432;28;20025;-79
2023/03/02 01:44:40;;;;;;;9.82;4.65;;;3.20;85.20;;;;;;4991223;28;20027;-80
2023/03/02 01:47:12;;;;;;;11.38;4.05;;;3.20;85.40;;;;;;4977605;28;20033;-81
2023/03/02 01:49:42;;;;;;;10.60;4.80;;;3.10;85.70;;;;;;4994169;28;20068;-81
2023/03/02 01:52:11;;;;;;;10.75;3.95;;;3.10;85.80;;;;;;4977001;28;20017;-80
2023/03/02 01:54:39;;;;;;;12.45;4.78;;;3.10;85.70;;;;;;4998023;28;20080;-81
2023/03/02 01:57:06;;;;;;;9.20;4.25;;;3.00;85.90;;;;;;4990800;28;20579;-81
2023/03/02 01:59:33;;;;;;;9.73;4.43;;;3.00;86.00;;;;;;4993714;28;20055;-81
2023/03/02 02:02:02;;;;;;;9.45;4.20;;;3.00;86.20;;;;;;4992904;28;20482;-81
2023/03/02 02:04:29;;;;;;;14.48;4.30;;;3.00;86.30;;;;;;4994914;28;20045;-81
2023/03/02 02:07:04;;;;;;;9.20;4.40;;;2.90;86.40;;;;;;5012216;28;20019;-79
2023/03/02 02:09:33;;;;;;;11.45;4.75;;;2.90;86.60;;;;;;4999121;28;20046;-79
2023/03/02 02:11:59;;;;;;;10.32;5.00;;;2.90;87.00;;;;;;4995782;28;20084;-79
2023/03/02 02:14:28;;;;;;;11.98;4.55;;;2.90;87.20;;;;;;4992313;28;20440;-79
2023/03/02 02:16:53;;;;;;;7.63;4.03;;;2.80;87.30;;;;;;4999042;28;20370;-79
2023/03/02 02:19:24;;;;;;;9.73;4.90;;;2.80;87.70;;;;;;4996731;28;20075;-79
2023/03/02 02:21:50;;;;;;;11.38;4.60;;;2.80;87.70;;;;;;4999523;28;20025;-80
2023/03/02 02:24:25;;;;;;;11.63;4.70;;;2.80;87.80;;;;;;4983211;28;20045;-80
2023/03/02 02:26:53;;;;;;;8.48;4.30;;;2.80;87.80;;;;;;4998703;28;20034;-81
2023/03/02 02:29:21;;;;;;;10.95;4.63;;;2.80;87.90;;;;;;5000128;28;20025;-81
2023/03/02 02:31:50;;;;;;;12.73;4.45;;;2.80;88.10;;;;;;4978946;28;20399;-81
2023/03/02 02:34:25;;;;;;;14.13;4.85;;;2.80;88.10;;;;;;4992625;28;20083;-81
2023/03/02 02:36:58;;;;;;;13.02;5.57;;;2.70;88.20;;;;;;4998748;28;20026;-81
2023/03/02 02:42:06;;;;;;;9.65;4.20;;;2.70;88.80;;;;;;5014437;23;20128;-79
2023/03/02 02:44:31;;;;;;;;;;;2.70;89.20;;;;;;4987624;28;20044;-79
2023/03/02 02:46:57;;;;;;;6.53;3.92;;;2.60;89.20;;;;;;4970518;28;19909;-79
2023/03/02 02:49:39;;;;;;;9.77;4.30;;;2.60;89.50;;;;;;4985792;28;20026;-79
2023/03/02 02:52:05;;;;;;;12.60;5.22;;;2.60;89.80;;;;;;4979311;28;20510;-79
2023/03/02 02:54:34;;;;;;;10.57;4.97;;;2.60;89.80;;;;;;4970078;28;20034;-79
2023/03/02 02:57:04;;;;;;;8.32;4.55;;;2.60;90.20;;;;;;4970514;28;20030;-80
2023/03/02 02:59:38;;;;;;;9.73;4.55;;;2.50;90.30;;;;;;4985869;28;20517;-80
2023/03/02 03:02:04;;;;;;;15.05;4.75;;;2.50;90.40;;;;;;4966733;28;20034;-80
2023/03/02 03:04:31;;;;;;;12.00;5.13;;;2.50;90.60;;;;;;4978697;28;20047;-81
2023/03/02 03:07:00;;;;;;;10.90;5.10;;;2.40;90.80;;;;;;4984617;28;20026;-81
2023/03/02 03:09:31;;;;;;;8.80;4.63;;;2.40;90.90;;;;;;4985461;28;20030;-81
2023/03/02 03:12:09;;;;;;;11.63;4.65;;;2.40;91.00;;;;;;4968819;28;20034;-81
2023/03/02 03:14:38;;;;;;;12.65;4.95;;;2.40;91.10;;;;;;4987473;28;20034;-81
2023/03/02 03:17:10;;;;;;;8.82;4.93;;;2.40;91.10;;;;;;4987080;28;20030;-81
2023/03/02 03:19:37;;;;;;;8.32;4.90;;;2.40;91.30;;;;;;4970287;28;20518;-81
2023/03/02 03:22:03;;;;;;;10.20;5.63;;;2.40;91.50;;;;;;4969568;28;20223;-80
2023/03/02 03:24:30;;;;;;;10.75;4.85;;;2.40;91.60;;;;;;4986067;28;20416;-81
2023/03/02 03:26:57;;;;;;;10.93;5.35;;;2.40;91.80;;;;;;4968759;28;20181;-81
2023/03/02 03:29:26;;;;;;;10.65;5.35;;;2.30;92.00;;;;;;4987535;28;20023;-80
2023/03/02 03:31:56;;;;;;;11.13;5.60;;;2.30;92.20;;;;;;4984205;28;20064;-80
2023/03/02 03:34:25;;;;;;;9.60;4.85;;;2.30;92.30;;;;;;4968910;28;20018;-79
2023/03/02 03:36:51;;;;;;;8.95;4.85;;;2.30;92.60;;;;;;4986440;28;20091;-79
2023/03/02 03:39:18;;;;;;;9.25;4.80;;;2.30;92.70;;;;;;4968357;28;21759;-79
2023/03/02 03:41:44;;;;;;;12.13;5.43;;;2.30;92.80;;;;;;4984637;28;20470;-80
2023/03/02 03:44:10;;;;;;;8.48;4.95;;;2.30;92.90;;;;;;4982634;28;20105;-79
2023/03/02 03:46:36;;;;;;;11.80;5.28;;;2.30;93.00;;;;;;4965842;28;21246;-80
2023/03/02 03:49:02;;;;;;;13.70;5.28;;;2.20;93.10;;;;;;4967598;28;20497;-80
2023/03/02 03:51:33;;;;;;;10.75;5.07;;;2.30;93.40;;;;;;4984854;28;20378;-79
2023/03/02 03:54:07;;;;;;;13.20;5.55;;;2.30;93.30;;;;;;4984632;28;20018;-81
2023/03/02 03:56:37;;;;;;;11.98;5.47;;;2.30;93.40;;;;;;4970051;28;20453;-81
2023/03/02 03:59:08;;;;;;;11.65;5.78;;;2.20;93.60;;;;;;4966993;28;20033;-80
2023/03/02 04:01:55;;;;;;;12.57;5.88;;;2.20;93.80;;;;;;4965781;28;20026;-81
2023/03/02 04:04:25;;;;;;;13.02;5.07;;;2.20;93.80;;;;;;4967848;28;20101;-80
2023/03/02 04:06:51;;;;;;;13.75;6.20;;;2.20;94.00;;;;;;4984097;28;20025;-81
2023/03/02 04:09:17;;;;;;;10.05;5.60;;;2.20;94.20;;;;;;4984955;28;20026;-81
2023/03/02 04:11:44;;;;;;;13.40;6.32;;;2.20;94.40;;;;;;4984694;28;20177;-81
2023/03/02 04:14:11;;;;;;;9.35;4.82;;;2.10;94.70;;;;;;4983473;28;20728;-81
2023/03/02 04:16:38;;;;;;;12.30;6.20;;;2.10;94.90;;;;;;4967716;28;20441;-81
2023/03/02 04:19:08;;;;;;;14.27;5.85;;;2.10;95.00;;;;;;4983327;28;20089;-81
2023/03/02 04:21:39;;;;;;;13.93;5.53;;;2.10;95.20;;;;;;4984553;28;20017;-81
2023/03/02 04:24:06;;;;;;;12.18;5.65;;;2.10;95.50;;;;;;4985753;28;20077;-81
2023/03/02 04:26:32;;;;;;;14.18;6.30;;;2.10;95.70;;;;;;4983457;28;20014;-80
2023/03/02 04:28:58;;;;;;;12.73;6.75;;;2.10;95.90;;;;;;4991224;28;20094;-80
2023/03/02 04:31:23;;;;;;;15.10;6.10;;;2.10;96.20;;;;;;4971673;28;20086;-80
2023/03/02 04:33:51;;;;;;;16.27;7.03;;;2.10;96.30;;;;;;4972774;28;20038;-80
2023/03/02 04:36:18;;;;;;;19.23;7.82;;;2.10;96.80;;;;;;4987059;28;20038;-81
2023/03/02 04:38:46;;;;;;;15.52;7.60;;;2.10;97.30;;;;;;4985557;28;20030;-80
2023/03/02 04:41:12;;;;;;;15.18;6.97;;;2.00;97.60;;;;;;4966342;28;20031;-80
2023/03/02 04:43:37;;;;;;;15.63;7.07;;;2.00;97.90;;;;;;4981155;28;20537;-81
2023/03/02 04:46:03;;;;;;;17.05;7.55;;;2.00;98.50;;;;;;4983826;28;20036;-81
2023/03/02 04:48:29;;;;;;;19.13;8.48;;;2.00;98.90;;;;;;4977887;28;20025;-81
2023/03/02 04:50:55;;;;;;;19.48;7.90;;;2.00;99.70;;;;;;4984595;28;20026;-80
2023/03/02 04:53:22;;;;;;;20.67;8.98;;;1.90;99.90;;;;;;4982780;28;20046;-81
2023/03/02 04:55:48;;;;;;;21.08;9.23;;;1.90;99.90;;;;;;4968009;28;20030;-81
2023/03/02 04:58:14;;;;;;;20.00;8.93;;;1.80;99.90;;;;;;4968836;28;20026;-80
2023/03/02 05:00:39;;;;;;;22.42;9.65;;;1.90;99.90;;;;;;4984709;28;20030;-80
2023/03/02 05:03:06;;;;;;;21.90;9.90;;;1.80;99.90;;;;;;4991039;28;20489;-81
2023/03/02 05:05:32;;;;;;;28.40;11.00;;;1.80;99.90;;;;;;4970479;28;20042;-81
2023/03/02 05:07:58;;;;;;;24.38;10.07;;;1.80;99.90;;;;;;4967253;28;20539;-81
2023/03/02 05:10:26;;;;;;;26.88;10.90;;;1.80;99.90;;;;;;4964852;28;20122;-79
2023/03/02 05:13:01;;;;;;;27.33;11.05;;;1.80;99.90;;;;;;4984480;28;20606;-78
2023/03/02 05:15:42;;;;;;;28.23;11.48;;;1.80;99.90;;;;;;4982741;28;20092;-79
2023/03/02 05:18:10;;;;;;;31.50;12.18;;;1.80;99.90;;;;;;4968265;28;20106;-79
2023/03/02 05:20:38;;;;;;;38.92;13.23;;;1.70;99.90;;;;;;4982848;28;20026;-80
2023/03/02 05:23:06;;;;;;;35.85;12.55;;;1.80;99.90;;;;;;4982625;28;20108;-79
2023/03/02 05:25:34;;;;;;;31.55;12.55;;;1.80;99.90;;;;;;4980659;28;20066;-79
2023/03/02 05:28:00;;;;;;;29.27;12.40;;;1.70;99.90;;;;;;4982789;28;20014;-79
2023/03/02 05:30:29;;;;;;;35.30;12.93;;;1.80;99.90;;;;;;4979427;28;20034;-79
2023/03/02 05:32:55;;;;;;;29.63;11.85;;;1.80;99.90;;;;;;4981511;28;20038;-79
2023/03/02 05:35:21;;;;;;;34.55;12.63;;;1.80;99.90;;;;;;4983699;28;20029;-79
2023/03/02 05:37:49;;;;;;;33.65;13.35;;;1.80;99.90;;;;;;4983484;28;20033;-79
2023/03/02 05:40:18;;;;;;;32.20;12.95;;;1.70;99.90;;;;;;4983757;28;20069;-79
2023/03/02 05:42:44;;;;;;;32.03;12.52;;;1.70;99.90;;;;;;4965422;28;20022;-80
2023/03/02 05:45:25;;;;;;;40.35;13.38;;;1.60;99.90;;;;;;4964656;28;20034;-79
2023/03/02 05:47:51;;;;;;;35.97;14.30;;;1.60;99.90;;;;;;4983092;28;20030;-79
2023/03/02 05:50:18;;;;;;;33.90;14.77;;;1.60;99.90;;;;;;4962392;28;20065;-79
2023/03/02 05:52:46;;;;;;;38.38;14.38;;;1.60;99.90;;;;;;4965072;28;20060;-79
2023/03/02 05:55:13;;;;;;;39.10;14.30;;;1.60;99.90;;;;;;4983920;28;20029;-81
2023/03/02 05:57:44;;;;;;;43.25;14.55;;;1.60;99.90;;;;;;4967590;28;20026;-81
2023/03/02 06:00:13;;;;;;;34.10;13.98;;;1.60;99.90;;;;;;4982508;28;20033;-81
2023/03/02 06:02:41;;;;;;;37.08;13.02;;;1.50;99.90;;;;;;4982435;28;20269;-81
2023/03/02 06:05:09;;;;;;;35.03;13.93;;;1.50;99.90;;;;;;4966995;28;20030;-80
2023/03/02 06:07:35;;;;;;;45.85;15.40;;;1.50;99.90;;;;;;4984829;28;20026;-81
2023/03/02 06:10:01;;;;;;;35.95;13.82;;;1.50;99.90;;;;;;4972408;28;20109;-80
2023/03/02 06:12:26;;;;;;;39.95;15.30;;;1.50;99.90;;;;;;4991839;28;20018;-81
2023/03/02 06:14:52;;;;;;;35.13;14.00;;;1.50;99.90;;;;;;4998929;28;20019;-81
2023/03/02 06:17:18;;;;;;;34.55;14.23;;;1.40;99.90;;;;;;4969946;28;20425;-81
2023/03/02 06:19:43;;;;;;;35.05;15.32;;;1.40;99.90;;;;;;4985133;28;20061;-80
2023/03/02 06:22:09;;;;;;;40.65;15.70;;;1.40;99.90;;;;;;4968035;28;20091;-80
2023/03/02 06:24:34;;;;;;;42.40;15.15;;;1.50;99.90;;;;;;4983226;28;20046;-79
2023/03/02 06:27:00;;;;;;;36.80;15.15;;;1.50;99.90;;;;;;4980845;28;20363;-79
2023/03/02 06:29:26;;;;;;;41.33;15.05;;;1.50;99.90;;;;;;4982014;28;20609;-79
2023/03/02 06:31:54;;;;;;;41.50;16.08;;;1.40;99.90;;;;;;4983651;28;20034;-80
2023/03/02 06:34:20;;;;;;;46.40;16.90;;;1.50;99.90;;;;;;4964783;28;20029;-81
2023/03/02 06:36:48;;;;;;;43.95;16.08;;;1.50;99.90;;;;;;4982428;28;20034;-81
2023/03/02 06:39:16;;;;;;;47.88;16.48;;;1.50;99.90;;;;;;4983080;28;20050;-81
2023/03/02 06:41:42;;;;;;;45.75;16.83;;;1.60;99.90;;;;;;4965644;28;20037;-81
2023/03/02 06:44:11;;;;;;;45.78;15.45;;;1.70;99.90;;;;;;4965245;28;20049;-80
2023/03/02 06:46:37;;;;;;;45.20;15.77;;;1.80;99.90;;;;;;4980563;28;20105;-81
2023/03/02 06:49:03;;;;;;;42.72;16.73;;;1.80;99.90;;;;;;4967263;28;20536;-81
2023/03/02 06:51:29;;;;;;;42.92;16.63;;;1.80;99.90;;;;;;4964066;28;20034;-81
2023/03/02 06:53:54;;;;;;;36.72;14.07;;;1.70;99.90;;;;;;4963377;28;20038;-81
2023/03/02 06:56:20;;;;;;;37.00;15.50;;;1.70;99.90;;;;;;4982140;28;20025;-81
2023/03/02 06:58:46;;;;;;;45.58;16.85;;;1.80;99.90;;;;;;4983125;28;20030;-81
2023/03/02 07:01:11;;;;;;;45.95;15.98;;;1.90;99.90;;;;;;4963895;28;20037;-80
2023/03/02 07:03:37;;;;;;;38.47;16.13;;;1.90;99.90;;;;;;4961361;28;21601;-80
2023/03/02 07:06:03;;;;;;;39.83;16.17;;;2.00;99.90;;;;;;4981191;28;20042;-80
2023/03/02 07:08:29;;;;;;;48.28;17.00;;;2.00;99.90;;;;;;4968559;28;20032;-80
2023/03/02 07:10:55;;;;;;;45.03;16.27;;;2.00;99.90;;;;;;4969299;28;20394;-81
2023/03/02 07:13:23;;;;;;;42.00;17.02;;;2.00;99.90;;;;;;4966955;28;20018;-81
2023/03/02 07:15:48;;;;;;;43.15;15.68;;;2.10;99.90;;;;;;4984331;28;20081;-81
2023/03/02 07:18:14;;;;;;;35.55;14.40;;;2.10;99.90;;;;;;4965875;28;20617;-80
2023/03/02 07:20:42;;;;;;;34.40;14.65;;;2.20;99.90;;;;;;4965870;28;20160;-81
2023/03/02 07:23:10;;;;;;;39.33;15.20;;;2.20;99.90;;;;;;4967700;28;20470;-76
2023/03/02 07:25:36;;;;;;;40.20;15.98;;;2.30;99.90;;;;;;4967840;28;20092;-78
2023/03/02 07:28:01;;;;;;;38.63;15.15;;;2.50;99.90;;;;;;4985112;28;20027;-83
2023/03/02 07:30:27;;;;;;;31.00;13.02;;;2.60;99.90;;;;;;4969789;28;21463;-83
2023/03/02 07:32:53;;;;;;;34.65;14.05;;;2.60;99.90;;;;;;4985178;28;20034;-80
2023/03/02 07:35:18;;;;;;;40.22;15.65;;;2.70;99.90;;;;;;4985457;28;20069;-80
2023/03/02 07:37:44;;;;;;;33.90;15.43;;;2.70;99.90;;;;;;4985188;28;20484;-78
2023/03/02 07:40:11;;;;;;;41.92;15.27;;;2.80;99.90;;;;;;4965949;28;20042;-78
2023/03/02 07:42:37;;;;;;;34.45;14.10;;;2.90;99.90;;;;;;4981308;28;20181;-80
2023/03/02 07:45:04;;;;;;;36.40;14.02;;;3.00;99.90;;;;;;4984542;28;20547;-82
2023/03/02 07:47:30;;;;;;;32.78;13.38;;;3.10;99.90;;;;;;4984808;28;20493;-80
2023/03/02 07:49:56;;;;;;;28.48;12.13;;;3.10;99.90;;;;;;4985443;28;20113;-80
2023/03/02 07:52:25;;;;;;;28.77;13.10;;;3.20;99.90;;;;;;4985244;28;20106;-83
2023/03/02 07:54:50;;;;;;;34.75;13.77;;;3.20;99.90;;;;;;4966169;28;20121;-80
2023/03/02 07:57:17;;;;;;;37.28;14.93;;;3.30;99.90;;;;;;4967957;28;20109;-78
2023/03/02 07:59:43;;;;;;;41.55;13.35;;;3.30;99.90;;;;;;4988140;28;20030;-80
2023/03/02 08:02:13;;;;;;;37.35;14.75;;;3.40;99.90;;;;;;4984460;28;20073;-81
2023/03/02 08:04:39;;;;;;;40.85;13.98;;;3.40;99.90;;;;;;4985107;28;20034;-81
2023/03/02 08:07:04;;;;;;;28.15;13.00;;;3.50;99.90;;;;;;4988406;28;20025;-81
2023/03/02 08:09:30;;;;;;;33.13;13.48;;;3.50;99.90;;;;;;4966361;28;20026;-81
2023/03/02 08:11:56;;;;;;;97.60;29.05;;;3.60;99.90;;;;;;4974260;28;20038;-79
2023/03/02 08:14:22;;;;;;;29.55;12.55;;;3.60;99.90;;;;;;4967152;28;20561;-80
2023/03/02 08:16:48;;;;;;;32.63;13.57;;;3.80;99.90;;;;;;4988257;28;20104;-81
2023/03/02 08:19:14;;;;;;;28.73;12.05;;;4.00;99.90;;;;;;4982442;28;20022;-81
2023/03/02 08:21:40;;;;;;;32.35;13.52;;;4.00;99.90;;;;;;4985185;28;20038;-81
2023/03/02 08:24:06;;;;;;;32.53;14.45;;;4.10;99.90;;;;;;4985018;28;20449;-81
2023/03/02 08:26:32;;;;;;;28.52;12.77;;;4.10;99.90;;;;;;4966400;28;20032;-79
2023/03/02 08:28:58;;;;;;;32.70;12.80;;;4.20;99.90;;;;;;4964955;28;20026;-79
2023/03/02 08:31:24;;;;;;;27.58;11.68;;;4.30;99.90;;;;;;4969101;28;20998;-79
2023/03/02 08:33:49;;;;;;;26.48;11.50;;;4.40;99.90;;;;;;4971318;28;20038;-79
2023/03/02 08:36:17;;;;;;;28.25;12.13;;;4.50;99.90;;;;;;4970441;28;20077;-80
2023/03/02 08:38:46;;;;;;;28.95;12.07;;;4.60;99.90;;;;;;4983490;28;20022;-79
2023/03/02 08:41:18;;;;;;;28.35;12.00;;;4.60;99.90;;;;;;4984445;28;20042;-79
2023/03/02 08:43:44;;;;;;;30.15;12.75;;;4.70;99.90;;;;;;5121532;23;20907;-80
2023/03/02 08:46:12;;;;;;;27.40;11.45;;;4.80;99.90;;;;;;4988183;28;20038;-81
2023/03/02 08:48:37;;;;;;;27.20;12.55;;;4.90;99.90;;;;;;4979212;28;20038;-81
2023/03/02 08:51:06;;;;;;;31.13;12.38;;;5.10;99.90;;;;;;4983636;28;20464;-79
2023/03/02 08:53:34;;;;;;;22.25;10.82;;;5.20;99.90;;;;;;4967350;28;20786;-81
2023/03/02 08:56:00;;;;;;;29.75;12.10;;;5.30;99.90;;;;;;4968953;28;20030;-81
2023/03/02 08:58:26;;;;;;;25.90;12.15;;;5.40;99.90;;;;;;4987159;28;20030;-81
2023/03/02 09:00:52;;;;;;;26.42;11.45;;;5.60;99.90;;;;;;4972732;28;20037;-81
2023/03/02 09:03:18;;;;;;;26.75;12.18;;;5.80;99.90;;;;;;4977341;28;20057;-78
2023/03/02 09:05:44;;;;;;;36.33;13.02;;;5.90;99.90;;;;;;4984519;28;20050;-79
2023/03/02 09:08:12;;;;;;;24.92;11.18;;;6.00;99.90;;;;;;4983053;28;20030;-79
2023/03/02 09:10:38;;;;;;;26.05;12.88;;;6.10;99.90;;;;;;4985235;28;20105;-79
2023/03/02 09:13:04;;;;;;;27.23;11.75;;;6.40;99.90;;;;;;4964533;28;20121;-77
2023/03/02 09:15:29;;;;;;;31.38;14.02;;;6.80;99.90;;;;;;4985266;28;20031;-78
2023/03/02 09:17:56;;;;;;;24.75;11.65;;;7.20;99.90;;;;;;4983381;28;20038;-79
2023/03/02 09:20:22;;;;;;;27.25;12.25;;;7.90;99.90;;;;;;4965896;28;20024;-79
2023/03/02 09:22:49;;;;;;;25.95;11.45;;;8.60;97.20;;;;;;4982694;28;20102;-80
2023/03/02 09:25:18;;;;;;;35.20;13.38;;;9.10;96.10;;;;;;4984692;28;20038;-79
2023/03/02 09:27:47;;;;;;;25.17;12.30;;;9.70;95.40;;;;;;4968224;28;20030;-79
2023/03/02 09:30:16;;;;;;;25.98;11.93;;;10.30;93.20;;;;;;4986381;28;20089;-81
2023/03/02 09:32:42;;;;;;;24.38;12.25;;;11.00;91.30;;;;;;4963564;28;20029;-81
2023/03/02 09:35:12;;;;;;;22.85;10.27;;;11.80;90.20;;;;;;4969552;28;20113;-80
2023/03/02 09:37:38;;;;;;;26.33;11.68;;;12.40;84.30;;;;;;4967519;28;20175;-81
2023/03/02 09:40:14;;;;;;;25.23;11.27;;;13.30;80.30;;;;;;4964608;28;20050;-81
2023/03/02 09:42:46;;;;;;;24.13;11.07;;;13.80;76.20;;;;;;4947671;28;20118;-80
2023/03/02 09:45:36;;;;;;;23.40;11.50;;;14.10;72.50;;;;;;4963502;28;20470;-80
2023/03/02 09:48:19;;;;;;;17.45;9.98;;;14.50;69.20;;;;;;4966238;28;20546;-81
2023/03/02 09:50:55;;;;;;;;;;;14.90;67.50;;;;;;4946016;28;20313;-78
2023/03/02 09:53:32;;;;;;;23.90;10.95;;;14.90;65.70;;;;;;4943871;28;19910;-78
2023/03/02 09:56:01;;;;;;;20.70;9.77;;;15.00;65.10;;;;;;4964342;28;20031;-80
2023/03/02 09:59:00;;;;;;;20.50;9.50;;;15.10;61.70;;;;;;4965177;28;20474;-80
2023/03/02 10:01:37;;;;;;;22.58;11.13;;;15.10;60.30;;;;;;4930668;28;20039;-80
2023/03/02 10:04:20;;;;;;;18.20;10.68;;;15.00;59.90;;;;;;4963814;28;20106;-81
2023/03/02 10:06:46;;;;;;;20.77;10.88;;;15.00;59.00;;;;;;4947740;28;20423;-81
2023/03/02 10:09:12;;;;;;;19.77;9.25;;;14.90;58.40;;;;;;4960563;28;20034;-81
2023/03/02 10:11:57;;;;;;;20.42;9.52;;;14.80;57.70;;;;;;4950576;28;20147;-81
2023/03/02 10:14:55;;;;;;;17.75;9.57;;;14.50;57.70;;;;;;4964633;28;20138;-80
2023/03/02 10:17:33;;;;;;;18.80;8.98;;;13.90;57.70;;;;;;4923266;28;20360;-79
2023/03/02 10:20:09;;;;;;;16.40;9.55;;;13.60;59.30;;;;;;4947718;28;20030;-79
2023/03/02 10:22:42;;;;;;;21.63;9.82;;;13.40;59.00;;;;;;4964078;28;20126;-79
2023/03/02 10:25:15;;;;;;;18.13;9.32;;;13.40;59.20;;;;;;4965114;28;20097;-79
2023/03/02 10:27:43;;;;;;;18.52;8.73;;;13.50;59.20;;;;;;4946567;28;20022;-79
2023/03/02 10:30:28;;;;;;;19.95;8.73;;;13.30;59.70;;;;;;4946454;28;20498;-79
2023/03/02 10:32:58;;;;;;;15.85;8.68;;;12.90;59.30;;;;;;4964033;28;20023;-80
2023/03/02 10:35:26;;;;;;;14.95;8.23;;;12.90;60.50;;;;;;4947726;28;20566;-81
2023/03/02 10:38:00;;;;;;;21.33;9.45;;;13.20;60.40;;;;;;4949638;28;20069;-81
2023/03/02 10:40:58;;;;;;;20.52;8.70;;;13.30;62.10;;;;;;4945076;28;20035;-79
2023/03/02 10:43:41;;;;;;;16.05;7.93;;;13.80;60.10;;;;;;4965811;28;20050;-79
2023/03/02 10:46:09;;;;;;;18.13;8.63;;;13.60;59.40;;;;;;4967302;28;20074;-79
2023/03/02 10:48:56;;;;;;;16.58;8.25;;;13.70;58.80;;;;;;4956205;28;20383;-81
2023/03/02 10:51:30;;;;;;;17.75;8.60;;;13.40;59.20;;;;;;4966653;28;20031;-81
2023/03/02 10:54:15;;;;;;;14.43;7.65;;;13.40;59.20;;;;;;4968182;28;20037;-81
2023/03/02 10:56:47;;;;;;;18.77;9.30;;;13.30;58.90;;;;;;4966513;28;20026;-81
2023/03/02 10:59:25;;;;;;;18.33;8.88;;;13.10;59.00;;;;;;4965694;28;20130;-81
2023/03/02 11:02:07;;;;;;;25.33;11.88;;;12.70;58.80;;;;;;4968821;28;20054;-77
2023/03/02 11:04:35;;;;;;;24.92;9.32;;;12.60;61.90;;;;;;4947640;28;20066;-77
2023/03/02 11:07:14;;;;;;;14.70;8.77;;;13.00;59.90;;;;;;4966855;28;20019;-79
2023/03/02 11:09:40;;;;;;;14.15;7.68;;;13.10;59.10;;;;;;4964556;28;20058;-79
2023/03/02 11:12:14;;;;;;;16.38;7.70;;;13.40;57.90;;;;;;4950252;28;20030;-78
2023/03/02 11:14:39;;;;;;;17.77;8.10;;;13.60;58.10;;;;;;4962751;28;20027;-79
2023/03/02 11:17:30;;;;;;;13.35;7.45;;;13.80;58.10;;;;;;4968466;28;20034;-81
2023/03/02 11:19:56;;;;;;;19.25;8.43;;;13.90;57.30;;;;;;4956926;28;20498;-81
2023/03/02 11:22:48;;;;;;;14.70;7.40;;;13.90;56.90;;;;;;4966981;28;20038;-80
2023/03/02 11:25:39;;;;;;;11.98;7.50;;;14.10;57.20;;;;;;4950664;28;20166;-80
2023/03/02 11:28:19;;;;;;;12.07;6.38;;;14.30;54.90;;;;;;4965890;28;20700;-79
2023/03/02 11:30:48;;;;;;;12.45;7.18;;;14.00;54.50;;;;;;4966916;28;20045;-78
2023/03/02 11:33:23;;;;;;;13.10;6.53;;;14.00;55.30;;;;;;4968750;28;20520;-80
2023/03/02 11:36:13;;;;;;;11.70;6.47;;;13.90;54.30;;;;;;4971399;28;20029;-80
2023/03/02 11:38:52;;;;;;;12.95;7.07;;;13.70;52.80;;;;;;4974283;28;20015;-81
2023/03/02 11:41:28;;;;;;;11.40;7.28;;;13.50;54.10;;;;;;4950429;28;20769;-81
2023/03/02 11:44:14;;;;;;;11.23;5.80;;;13.40;54.70;;;;;;4965935;28;20061;-80
2023/03/02 11:46:43;;;;;;;12.77;6.53;;;13.40;55.10;;;;;;4963315;28;20039;-80
2023/03/02 11:49:21;;;;;;;11.73;6.38;;;13.50;55.20;;;;;;4949341;28;20015;-80
2023/03/02 11:51:58;;;;;;;11.68;6.07;;;13.90;55.30;;;;;;4948197;28;20093;-80
2023/03/02 11:54:44;;;;;;;10.95;7.13;;;14.20;54.70;;;;;;4948188;28;20018;-79
2023/03/02 11:57:24;;;;;;;12.98;7.30;;;14.40;54.20;;;;;;4965013;28;20061;-78
2023/03/02 11:59:51;;;;;;;12.27;6.93;;;14.30;54.70;;;;;;4948751;28;20843;-78
2023/03/02 12:02:18;;;;;;;12.63;7.18;;;14.40;54.50;;;;;;4949356;28;20026;-78
2023/03/02 12:04:43;;;;;;;14.95;7.63;;;14.60;54.40;;;;;;4967520;28;20035;-78
2023/03/02 12:07:21;;;;;;;12.93;8.05;;;14.50;54.00;;;;;;4967692;28;20101;-79
2023/03/02 12:10:21;;;;;;;10.60;7.03;;;14.50;53.80;;;;;;4963576;28;20645;-79
2023/03/02 12:12:59;;;;;;;17.48;6.60;;;14.50;54.00;;;;;;4966861;28;20065;-79
2023/03/02 12:15:46;;;;;;;10.32;6.53;;;14.60;53.30;;;;;;4948278;28;20463;-78
2023/03/02 12:18:21;;;;;;;10.35;6.40;;;15.10;53.10;;;;;;4954702;28;20026;-79
2023/03/02 12:21:16;;;;;;;14.23;7.38;;;15.10;52.00;;;;;;4959615;28;20034;-78
2023/03/02 12:23:44;;;;;;;10.85;6.60;;;15.20;51.20;;;;;;4964130;28;20062;-78
2023/03/02 12:26:19;;;;;;;10.38;6.80;;;15.30;52.20;;;;;;4985547;28;20222;-77
2023/03/02 12:29:09;;;;;;;11.15;6.68;;;15.20;52.00;;;;;;4960448;28;20073;-78
2023/03/02 12:31:55;;;;;;;13.25;7.35;;;15.50;50.80;;;;;;4982425;28;20518;-79
2023/03/02 12:34:23;;;;;;;10.38;6.15;;;15.50;50.20;;;;;;4980982;28;20486;-78
2023/03/02 12:36:56;;;;;;;13.63;7.18;;;15.50;49.70;;;;;;4963612;28;20034;-78
2023/03/02 12:39:43;;;;;;;12.35;7.25;;;15.50;50.60;;;;;;4983344;28;20719;-78
2023/03/02 12:42:21;;;;;;;10.38;6.30;;;15.50;50.30;;;;;;4966433;28;20057;-81
2023/03/02 12:45:12;;;;;;;12.73;6.88;;;15.50;51.40;;;;;;4980883;28;20683;-78
2023/03/02 12:47:43;;;;;;;10.07;6.57;;;15.50;50.90;;;;;;4955783;28;20026;-79
2023/03/02 12:50:22;;;;;;;15.63;7.18;;;15.60;50.90;;;;;;4982343;28;20026;-78
2023/03/02 12:53:12;;;;;;;14.23;7.07;;;15.80;51.40;;;;;;4982320;28;20029;-78
2023/03/02 12:55:38;;;;;;;12.25;6.72;;;15.90;51.50;;;;;;4964029;28;20070;-78
2023/03/02 12:58:24;;;;;;;10.95;6.60;;;16.10;51.30;;;;;;4967360;28;20419;-78
2023/03/02 13:00:57;;;;;;;12.25;7.22;;;16.00;49.50;;;;;;4985706;28;20022;-78